Time;durP1;ratioP1;P1;durP2;ratioP2;P2;SDS_P1;SDS_P2;PMS_P1;PMS_P2;Temp;Humidity;BMP_temperature;BMP_pressure;BME280_temperature;BME280_humidity;BME280_pressure;Samples;Min_cycle;Max_cycle;Signal;HPM_P1;HPM_P2
2022/08/15 00:01:30;;;;;;;7.47;5.68;;;;;;;;;;4949741;28;20082;-76
2022/08/15 00:03:59;;;;;;;7.90;6.07;;;;;;;;;;4936599;29;20040;-76
2022/08/15 00:06:35;;;;;;;8.27;5.93;;;;;;;;;;4937967;29;20047;-75
2022/08/15 00:09:04;;;;;;;8.52;5.95;;;;;;;;;;4941685;28;20074;-77
2022/08/15 00:11:37;;;;;;;6.05;5.13;;;;;;;;;;4953679;28;20043;-77
2022/08/15 00:14:13;;;;;;;7.35;5.13;;;;;;;;;;4955568;28;20118;-76
2022/08/15 00:16:41;;;;;;;8.65;5.75;;;;;;;;;;4956580;28;20111;-77
2022/08/15 00:19:11;;;;;;;9.63;6.25;;;;;;;;;;4950311;28;20641;-77
2022/08/15 00:21:43;;;;;;;7.15;5.82;;;;;;;;;;4948430;28;20066;-77
2022/08/15 00:24:11;;;;;;;9.45;6.20;;;;;;;;;;4955182;28;20043;-77
2022/08/15 00:26:38;;;;;;;7.50;5.57;;;;;;;;;;4943368;28;20052;-77
2022/08/15 00:29:06;;;;;;;8.27;6.90;;;;;;;;;;4935892;29;20082;-77
2022/08/15 00:31:32;;;;;;;10.82;7.43;;;;;;;;;;4937012;29;20094;-77
2022/08/15 00:33:59;;;;;;;9.23;7.47;;;;;;;;;;4937454;29;20032;-77
2022/08/15 00:36:26;;;;;;;10.02;7.22;;;;;;;;;;4937822;29;20545;-77
2022/08/15 00:38:54;;;;;;;10.57;7.38;;;;;;;;;;4938758;29;20047;-76
2022/08/15 00:41:39;;;;;;;7.88;6.53;;;;;;;;;;4933962;29;20043;-78
2022/08/15 00:44:18;;;;;;;10.95;6.90;;;;;;;;;;4917873;29;20047;-77
2022/08/15 00:46:53;;;;;;;9.07;6.85;;;;;;;;;;4916810;29;20115;-77
2022/08/15 00:49:24;;;;;;;13.48;8.70;;;;;;;;;;4956247;29;20047;-78
2022/08/15 00:51:54;;;;;;;11.57;8.90;;;;;;;;;;4956130;29;20046;-77
2022/08/15 00:54:30;;;;;;;11.50;9.55;;;;;;;;;;4955931;29;20466;-78
2022/08/15 00:57:07;;;;;;;13.25;8.98;;;;;;;;;;4955532;28;20044;-78
2022/08/15 00:59:37;;;;;;;11.55;8.93;;;;;;;;;;4937756;29;20429;-78
2022/08/15 01:02:07;;;;;;;10.05;8.07;;;;;;;;;;4936650;29;20040;-78
2022/08/15 01:04:35;;;;;;;11.77;8.15;;;;;;;;;;4919768;29;20043;-79
2022/08/15 01:07:03;;;;;;;10.70;8.40;;;;;;;;;;4935601;29;20424;-78
2022/08/15 01:09:30;;;;;;;11.95;8.15;;;;;;;;;;4926473;29;20423;-78
2022/08/15 01:12:02;;;;;;;9.20;7.53;;;;;;;;;;4917793;29;20098;-78
2022/08/15 01:14:31;;;;;;;10.77;8.25;;;;;;;;;;4934314;29;20044;-79
2022/08/15 01:16:58;;;;;;;10.43;8.32;;;;;;;;;;4935999;29;20122;-77
2022/08/15 01:19:33;;;;;;;11.00;8.88;;;;;;;;;;4919564;29;20098;-78
2022/08/15 01:22:04;;;;;;;10.55;8.48;;;;;;;;;;4937013;29;20036;-78
2022/08/15 01:24:53;;;;;;;11.50;8.60;;;;;;;;;;4935465;29;20513;-77
2022/08/15 01:27:23;;;;;;;9.23;7.95;;;;;;;;;;4935405;29;20042;-76
2022/08/15 01:29:52;;;;;;;11.60;7.95;;;;;;;;;;4935694;29;20042;-80
2022/08/15 01:32:18;;;;;;;10.43;8.10;;;;;;;;;;4935396;29;20032;-77
2022/08/15 01:34:45;;;;;;;10.50;8.13;;;;;;;;;;4925460;29;20044;-78
2022/08/15 01:37:12;;;;;;;11.40;8.32;;;;;;;;;;4917320;29;20035;-78
2022/08/15 01:40:04;;;;;;;10.93;8.13;;;;;;;;;;4934976;29;20040;-78
2022/08/15 01:42:41;;;;;;;10.70;8.32;;;;;;;;;;4935351;29;20067;-77
2022/08/15 01:45:21;;;;;;;10.18;8.18;;;;;;;;;;4936312;29;20043;-78
2022/08/15 01:47:51;;;;;;;11.73;8.65;;;;;;;;;;4919125;29;20591;-77
2022/08/15 01:50:43;;;;;;;11.32;9.93;;;;;;;;;;4935040;29;20047;-78
2022/08/15 01:53:23;;;;;;;12.43;9.40;;;;;;;;;;4934683;29;20606;-79
2022/08/15 01:56:07;;;;;;;13.45;9.13;;;;;;;;;;4918909;29;20047;-77
2022/08/15 01:58:39;;;;;;;12.30;9.35;;;;;;;;;;4918521;29;20513;-79
2022/08/15 02:01:08;;;;;;;13.20;9.65;;;;;;;;;;4899873;29;20044;-78
2022/08/15 02:03:36;;;;;;;12.32;8.15;;;;;;;;;;4900026;29;20443;-77
2022/08/15 02:06:16;;;;;;;12.93;9.75;;;;;;;;;;4899891;29;20070;-77
2022/08/15 02:08:44;;;;;;;12.60;9.35;;;;;;;;;;4898769;29;20042;-77
2022/08/15 02:11:15;;;;;;;12.55;8.55;;;;;;;;;;4899631;29;20114;-77
2022/08/15 02:13:44;;;;;;;9.70;8.00;;;;;;;;;;4899674;29;20144;-77
2022/08/15 02:16:13;;;;;;;11.10;7.65;;;;;;;;;;4918639;29;20027;-77
2022/08/15 02:18:40;;;;;;;11.02;7.78;;;;;;;;;;4916173;29;20581;-76
2022/08/15 02:21:06;;;;;;;9.13;6.88;;;;;;;;;;4921979;29;20043;-78
2022/08/15 02:23:32;;;;;;;9.65;7.25;;;;;;;;;;4928502;29;20122;-77
2022/08/15 02:25:59;;;;;;;7.57;6.65;;;;;;;;;;4918631;29;20047;-77
2022/08/15 02:28:26;;;;;;;7.57;6.78;;;;;;;;;;4935529;29;20048;-76
2022/08/15 02:30:55;;;;;;;11.00;6.97;;;;;;;;;;4918698;29;20156;-77
2022/08/15 02:33:22;;;;;;;7.68;6.55;;;;;;;;;;4902898;29;20046;-79
2022/08/15 02:35:51;;;;;;;7.60;5.80;;;;;;;;;;4918692;29;20429;-76
2022/08/15 02:38:18;;;;;;;6.40;5.45;;;;;;;;;;4918357;29;20129;-79
2022/08/15 02:40:44;;;;;;;6.70;4.93;;;;;;;;;;4918295;29;20554;-78
2022/08/15 02:43:13;;;;;;;7.30;5.47;;;;;;;;;;4935217;29;20043;-79
2022/08/15 02:45:47;;;;;;;9.45;5.60;;;;;;;;;;4917912;29;20031;-79
2022/08/15 02:48:15;;;;;;;8.70;5.53;;;;;;;;;;4918233;29;20036;-79
2022/08/15 02:50:43;;;;;;;7.82;5.07;;;;;;;;;;4918123;29;20111;-78
2022/08/15 02:53:17;;;;;;;6.18;5.07;;;;;;;;;;4933785;29;20039;-79
2022/08/15 02:55:47;;;;;;;5.95;5.13;;;;;;;;;;4935021;29;20036;-79
2022/08/15 02:58:14;;;;;;;9.68;6.32;;;;;;;;;;4918110;29;20046;-79
2022/08/15 03:00:44;;;;;;;5.93;4.75;;;;;;;;;;4918188;29;20039;-78
2022/08/15 03:03:14;;;;;;;5.82;4.90;;;;;;;;;;4933437;29;20042;-79
2022/08/15 03:05:45;;;;;;;5.47;4.70;;;;;;;;;;4917454;29;20036;-78
2022/08/15 03:08:12;;;;;;;7.25;5.40;;;;;;;;;;4917897;29;20062;-78
2022/08/15 03:10:40;;;;;;;6.97;4.90;;;;;;;;;;4934773;29;20070;-78
2022/08/15 03:13:14;;;;;;;6.93;4.75;;;;;;;;;;4933429;29;20064;-76
2022/08/15 03:15:52;;;;;;;7.43;5.22;;;;;;;;;;4932422;29;20066;-77
2022/08/15 03:18:21;;;;;;;12.02;5.50;;;;;;;;;;4924226;29;20043;-77
2022/08/15 03:20:51;;;;;;;7.60;5.03;;;;;;;;;;4914302;29;20752;-77
2022/08/15 03:23:22;;;;;;;7.32;4.97;;;;;;;;;;4917064;29;20032;-76
2022/08/15 03:25:51;;;;;;;6.95;4.30;;;;;;;;;;4927806;29;20035;-77
2022/08/15 03:28:24;;;;;;;7.30;4.72;;;;;;;;;;4904596;29;20051;-77
2022/08/15 03:30:50;;;;;;;6.70;5.03;;;;;;;;;;4914542;29;20064;-77
2022/08/15 03:33:17;;;;;;;6.53;4.80;;;;;;;;;;4898773;29;20059;-77
2022/08/15 03:35:49;;;;;;;8.90;4.35;;;;;;;;;;4914328;29;20098;-77
2022/08/15 03:38:19;;;;;;;5.40;4.25;;;;;;;;;;4914335;29;20040;-76
2022/08/15 03:40:50;;;;;;;5.72;4.85;;;;;;;;;;4914385;29;20061;-76
2022/08/15 03:43:27;;;;;;;5.95;4.63;;;;;;;;;;4914220;29;20074;-76
2022/08/15 03:45:56;;;;;;;5.07;3.75;;;;;;;;;;4914258;29;20103;-77
2022/08/15 03:48:30;;;;;;;5.38;3.72;;;;;;;;;;4914379;29;20498;-77
2022/08/15 03:50:59;;;;;;;5.60;4.20;;;;;;;;;;4914157;29;20124;-76
2022/08/15 03:53:30;;;;;;;5.70;3.75;;;;;;;;;;4913951;29;20044;-76
2022/08/15 03:56:00;;;;;;;5.85;3.90;;;;;;;;;;4914191;29;20957;-78
2022/08/15 03:58:27;;;;;;;5.38;3.83;;;;;;;;;;4914521;29;20071;-77
2022/08/15 04:00:53;;;;;;;7.30;4.38;;;;;;;;;;4914441;29;20171;-77
2022/08/15 04:03:26;;;;;;;5.60;4.15;;;;;;;;;;4926357;29;20118;-77
2022/08/15 04:05:59;;;;;;;5.10;3.95;;;;;;;;;;4923316;29;20096;-79
2022/08/15 04:08:30;;;;;;;8.98;4.82;;;;;;;;;;4915422;29;20123;-77
2022/08/15 04:11:03;;;;;;;6.90;4.22;;;;;;;;;;4915690;29;20043;-77
2022/08/15 04:13:31;;;;;;;9.93;5.07;;;;;;;;;;4914141;29;20032;-77
2022/08/15 04:16:00;;;;;;;5.60;4.95;;;;;;;;;;4917284;29;20074;-77
2022/08/15 04:18:27;;;;;;;9.50;5.28;;;;;;;;;;4917297;29;20055;-77
2022/08/15 04:20:56;;;;;;;7.53;5.65;;;;;;;;;;4914239;29;20040;-77
2022/08/15 04:23:23;;;;;;;7.88;6.20;;;;;;;;;;4914923;29;20468;-77
2022/08/15 04:25:49;;;;;;;9.88;6.60;;;;;;;;;;4915238;29;20410;-77
2022/08/15 04:28:18;;;;;;;7.78;6.32;;;;;;;;;;4915443;29;20456;-77
2022/08/15 04:30:46;;;;;;;10.40;6.65;;;;;;;;;;4916632;29;20028;-77
2022/08/15 04:33:17;;;;;;;7.68;6.18;;;;;;;;;;4917588;29;20054;-77
2022/08/15 04:35:48;;;;;;;6.65;4.43;;;;;;;;;;4918734;29;20487;-76
2022/08/15 04:38:16;;;;;;;5.72;3.70;;;;;;;;;;4918380;29;20502;-77
2022/08/15 04:40:44;;;;;;;4.85;4.00;;;;;;;;;;4918334;29;20043;-77
2022/08/15 04:43:11;;;;;;;5.25;3.75;;;;;;;;;;4919676;29;20040;-76
2022/08/15 04:45:40;;;;;;;5.18;3.92;;;;;;;;;;4924292;29;20059;-77
2022/08/15 04:48:07;;;;;;;6.65;3.70;;;;;;;;;;4935952;29;20059;-78
2022/08/15 04:50:37;;;;;;;8.80;3.80;;;;;;;;;;4905642;29;20039;-77
2022/08/15 04:53:08;;;;;;;4.45;3.47;;;;;;;;;;4921048;29;20039;-77
2022/08/15 04:55:41;;;;;;;5.70;3.35;;;;;;;;;;4936831;29;20059;-76
2022/08/15 04:58:09;;;;;;;;;;;;;;;;;;4937372;29;20558;-76
2022/08/15 05:00:40;;;;;;;4.80;3.45;;;;;;;;;;4938272;29;19965;-76
2022/08/15 05:03:29;;;;;;;4.63;3.60;;;;;;;;;;4937880;29;20050;-76
2022/08/15 05:06:01;;;;;;;5.72;3.50;;;;;;;;;;4937995;29;20024;-77
2022/08/15 05:08:33;;;;;;;4.43;3.80;;;;;;;;;;4936887;29;20094;-76
2022/08/15 05:11:18;;;;;;;4.18;3.45;;;;;;;;;;4936580;29;20042;-76
2022/08/15 05:13:49;;;;;;;7.80;3.80;;;;;;;;;;4936721;29;20059;-76
2022/08/15 05:16:34;;;;;;;5.40;4.13;;;;;;;;;;4936488;29;20039;-76
2022/08/15 05:19:03;;;;;;;5.28;3.85;;;;;;;;;;4936423;29;20032;-76
2022/08/15 05:21:30;;;;;;;6.03;3.85;;;;;;;;;;4936537;29;20078;-76
2022/08/15 05:23:56;;;;;;;6.90;3.95;;;;;;;;;;4936390;29;20063;-77
2022/08/15 05:26:27;;;;;;;6.13;3.92;;;;;;;;;;4936603;29;20047;-76
2022/08/15 05:28:52;;;;;;;5.65;3.75;;;;;;;;;;4920667;29;20090;-77
2022/08/15 05:31:18;;;;;;;4.63;3.53;;;;;;;;;;4936356;29;20122;-77
2022/08/15 05:33:47;;;;;;;6.63;3.63;;;;;;;;;;4936358;29;20031;-76
2022/08/15 05:36:15;;;;;;;6.40;3.33;;;;;;;;;;4937458;29;20513;-78
2022/08/15 05:38:47;;;;;;;6.55;3.90;;;;;;;;;;4929283;29;20075;-76
2022/08/15 05:41:32;;;;;;;7.05;4.60;;;;;;;;;;4917109;29;20428;-76
2022/08/15 05:44:16;;;;;;;5.75;3.70;;;;;;;;;;4917069;29;20498;-77
2022/08/15 05:47:09;;;;;;;7.38;4.80;;;;;;;;;;4901378;29;20134;-77
2022/08/15 05:49:40;;;;;;;5.97;4.07;;;;;;;;;;4899359;29;20056;-76
2022/08/15 05:52:39;;;;;;;6.47;4.28;;;;;;;;;;4918183;29;20059;-77
2022/08/15 05:55:15;;;;;;;8.82;4.90;;;;;;;;;;4916796;29;20127;-76
2022/08/15 05:58:10;;;;;;;5.57;4.80;;;;;;;;;;4916793;29;20072;-76
2022/08/15 06:00:46;;;;;;;6.43;4.50;;;;;;;;;;4878679;29;20534;-77
2022/08/15 06:03:24;;;;;;;5.80;4.65;;;;;;;;;;4916674;29;20043;-77
2022/08/15 06:05:57;;;;;;;6.60;4.15;;;;;;;;;;4916610;29;20499;-77
2022/08/15 06:08:30;;;;;;;5.63;4.05;;;;;;;;;;4916767;29;20422;-77
2022/08/15 06:11:03;;;;;;;6.93;4.25;;;;;;;;;;4901031;29;20542;-80
2022/08/15 06:13:35;;;;;;;5.22;4.28;;;;;;;;;;4916476;29;20036;-78
2022/08/15 06:16:17;;;;;;;5.85;4.60;;;;;;;;;;4918078;29;20119;-79
2022/08/15 06:18:46;;;;;;;7.15;4.85;;;;;;;;;;4900912;29;20039;-79
2022/08/15 06:21:31;;;;;;;4.60;3.92;;;;;;;;;;4900287;29;20110;-78
2022/08/15 06:24:14;;;;;;;6.50;3.70;;;;;;;;;;4916305;29;20032;-78
2022/08/15 06:26:52;;;;;;;6.78;4.40;;;;;;;;;;4900678;29;20066;-79
2022/08/15 06:29:37;;;;;;;5.85;3.47;;;;;;;;;;4916684;29;20525;-77
2022/08/15 06:32:11;;;;;;;5.15;4.00;;;;;;;;;;4917274;29;20060;-77
2022/08/15 06:35:04;;;;;;;6.47;4.05;;;;;;;;;;4916338;29;20369;-80
2022/08/15 06:37:44;;;;;;;9.75;3.97;;;;;;;;;;4916344;29;20040;-78
2022/08/15 06:40:26;;;;;;;5.32;3.83;;;;;;;;;;4915929;29;20052;-79
2022/08/15 06:42:53;;;;;;;4.95;3.33;;;;;;;;;;4916184;29;20068;-78
2022/08/15 06:45:43;;;;;;;5.20;3.63;;;;;;;;;;4913554;29;20399;-78
2022/08/15 06:48:13;;;;;;;5.95;4.82;;;;;;;;;;4934229;29;20035;-77
2022/08/15 06:50:49;;;;;;;4.80;3.80;;;;;;;;;;4934747;29;20439;-78
2022/08/15 06:53:25;;;;;;;11.07;4.45;;;;;;;;;;4936044;29;20043;-77
2022/08/15 06:55:57;;;;;;;7.50;3.22;;;;;;;;;;4935783;29;20035;-78
2022/08/15 06:58:50;;;;;;;6.88;3.38;;;;;;;;;;4935007;29;20491;-79
2022/08/15 07:01:22;;;;;;;5.45;3.10;;;;;;;;;;4912749;29;20040;-78
2022/08/15 07:04:00;;;;;;;3.28;2.47;;;;;;;;;;4921678;29;20044;-78
2022/08/15 07:06:38;;;;;;;4.63;2.83;;;;;;;;;;4916024;29;20086;-78
2022/08/15 07:09:34;;;;;;;4.43;2.70;;;;;;;;;;4915213;29;20131;-78
2022/08/15 07:12:07;;;;;;;4.38;3.30;;;;;;;;;;4914956;29;20052;-78
2022/08/15 07:15:17;;;;;;;3.72;2.40;;;;;;;;;;4918272;29;20467;-78
2022/08/15 07:17:54;;;;;;;4.25;3.00;;;;;;;;;;4858528;29;20147;-78
2022/08/15 07:20:20;;;;;;;4.40;2.65;;;;;;;;;;4843129;29;20045;-78
2022/08/15 07:22:46;;;;;;;5.03;2.90;;;;;;;;;;4885674;29;20052;-78
2022/08/15 07:25:19;;;;;;;5.43;2.90;;;;;;;;;;4933470;29;20035;-78
2022/08/15 07:28:09;;;;;;;5.20;2.90;;;;;;;;;;4931182;29;20196;-77
2022/08/15 07:30:47;;;;;;;5.43;3.03;;;;;;;;;;4926627;29;20126;-78
2022/08/15 07:33:37;;;;;;;5.35;3.05;;;;;;;;;;4916949;29;20050;-77
2022/08/15 07:36:26;;;;;;;10.95;3.40;;;;;;;;;;4918508;29;20031;-76
2022/08/15 07:38:54;;;;;;;5.82;3.50;;;;;;;;;;4937068;29;20035;-78
2022/08/15 07:41:24;;;;;;;5.90;3.30;;;;;;;;;;4937119;29;20089;-78
2022/08/15 07:43:57;;;;;;;5.15;3.00;;;;;;;;;;4936865;29;20062;-78
2022/08/15 07:46:37;;;;;;;5.88;3.00;;;;;;;;;;4923318;29;20029;-79
2022/08/15 07:49:16;;;;;;;6.35;3.47;;;;;;;;;;4916272;29;20036;-78
2022/08/15 07:51:49;;;;;;;6.43;3.30;;;;;;;;;;4933793;29;20043;-77
2022/08/15 07:54:32;;;;;;;7.68;3.65;;;;;;;;;;4934926;29;20054;-78
2022/08/15 07:57:05;;;;;;;4.50;2.80;;;;;;;;;;4917668;29;20035;-78
2022/08/15 07:59:36;;;;;;;5.85;3.35;;;;;;;;;;4933470;29;20126;-78
2022/08/15 08:02:32;;;;;;;6.43;3.00;;;;;;;;;;4914499;29;20507;-78
2022/08/15 08:05:00;;;;;;;4.03;2.78;;;;;;;;;;4899007;29;20040;-78
2022/08/15 08:07:42;;;;;;;6.38;2.95;;;;;;;;;;4900036;29;20491;-79
2022/08/15 08:10:35;;;;;;;4.50;2.92;;;;;;;;;;4918274;29;20076;-78
2022/08/15 08:13:30;;;;;;;5.70;3.15;;;;;;;;;;4903617;29;20447;-77
2022/08/15 08:16:24;;;;;;;5.93;3.10;;;;;;;;;;4917601;29;20119;-78
2022/08/15 08:19:11;;;;;;;3.90;2.38;;;;;;;;;;4902336;29;20275;-77
2022/08/15 08:22:02;;;;;;;5.68;3.00;;;;;;;;;;4918232;29;20107;-76
2022/08/15 08:24:49;;;;;;;5.03;3.08;;;;;;;;;;4884395;29;20140;-77
2022/08/15 08:27:34;;;;;;;3.60;2.70;;;;;;;;;;4920738;29;20500;-77
2022/08/15 08:30:10;;;;;;;3.67;2.70;;;;;;;;;;4921394;29;20040;-78
2022/08/15 08:32:52;;;;;;;5.07;3.10;;;;;;;;;;4938398;29;20115;-76
2022/08/15 08:35:18;;;;;;;4.82;2.80;;;;;;;;;;4938217;29;20483;-76
2022/08/15 08:38:13;;;;;;;5.22;2.63;;;;;;;;;;4938066;29;20043;-75
2022/08/15 08:41:29;;;;;;;6.18;3.05;;;;;;;;;;4937522;29;20051;-77
2022/08/15 08:44:19;;;;;;;3.22;2.53;;;;;;;;;;4930064;29;20367;-76
2022/08/15 08:46:45;;;;;;;4.95;3.08;;;;;;;;;;4919302;29;20424;-77
2022/08/15 08:49:11;;;;;;;3.80;2.70;;;;;;;;;;4933744;29;20483;-76
2022/08/15 08:51:49;;;;;;;4.95;3.42;;;;;;;;;;4928430;29;20067;-77
2022/08/15 08:54:29;;;;;;;5.15;3.00;;;;;;;;;;4932362;29;20111;-76
2022/08/15 08:57:00;;;;;;;3.67;2.40;;;;;;;;;;4924425;29;20028;-77
2022/08/15 08:59:34;;;;;;;3.38;2.60;;;;;;;;;;4917485;29;20127;-77
2022/08/15 09:02:28;;;;;;;5.03;3.17;;;;;;;;;;4918040;29;20070;-77
2022/08/15 09:04:59;;;;;;;5.18;3.25;;;;;;;;;;4899221;29;20529;-77
2022/08/15 09:07:31;;;;;;;4.25;2.80;;;;;;;;;;4934550;29;20036;-76
2022/08/15 09:10:00;;;;;;;5.45;2.85;;;;;;;;;;4927226;29;20115;-77
2022/08/15 09:15:22;;;;;;;5.97;2.90;;;;;;;;;;4918276;29;20032;-76
2022/08/15 09:17:53;;;;;;;3.88;2.55;;;;;;;;;;4901502;29;20041;-77
2022/08/15 09:20:24;;;;;;;5.30;2.70;;;;;;;;;;4937351;29;20107;-77
2022/08/15 09:22:51;;;;;;;4.22;2.85;;;;;;;;;;4933398;29;20028;-75
2022/08/15 09:25:18;;;;;;;3.60;3.00;;;;;;;;;;4918178;29;20032;-75
2022/08/15 09:28:09;;;;;;;5.28;2.92;;;;;;;;;;4918938;29;20032;-75
2022/08/15 09:30:35;;;;;;;3.85;3.25;;;;;;;;;;4921213;29;20052;-76
2022/08/15 09:33:27;;;;;;;5.22;3.28;;;;;;;;;;4937341;29;20043;-75
2022/08/15 09:36:31;;;;;;;6.10;3.53;;;;;;;;;;4936528;29;20151;-76
2022/08/15 09:39:09;;;;;;;;;;;;;;;;;;4918844;29;20056;-76
2022/08/15 09:41:59;;;;;;;5.88;3.88;;;;;;;;;;4917901;29;19923;-77
2022/08/15 09:44:52;;;;;;;5.38;2.80;;;;;;;;;;4925520;29;20419;-77
2022/08/15 09:47:39;;;;;;;5.30;3.47;;;;;;;;;;4928930;29;20032;-77
2022/08/15 09:50:17;;;;;;;6.15;3.80;;;;;;;;;;4936777;29;20028;-75
2022/08/15 09:52:49;;;;;;;4.65;3.40;;;;;;;;;;4930844;29;20411;-77
2022/08/15 09:55:26;;;;;;;4.67;3.70;;;;;;;;;;4933110;29;20024;-77
2022/08/15 09:57:55;;;;;;;7.43;4.25;;;;;;;;;;4923562;29;20328;-77
2022/08/15 10:00:52;;;;;;;5.10;3.80;;;;;;;;;;4932478;29;20115;-76
2022/08/15 10:03:43;;;;;;;5.38;3.53;;;;;;;;;;4936596;29;20158;-76
2022/08/15 10:06:12;;;;;;;9.48;3.67;;;;;;;;;;4936540;29;20402;-78
2022/08/15 10:08:50;;;;;;;6.75;3.88;;;;;;;;;;4935651;29;20075;-77
2022/08/15 10:11:27;;;;;;;4.43;3.60;;;;;;;;;;4919255;29;20046;-77
2022/08/15 10:14:02;;;;;;;6.13;4.10;;;;;;;;;;4935073;29;20043;-76
2022/08/15 10:16:40;;;;;;;5.78;3.70;;;;;;;;;;4936280;29;20067;-77
2022/08/15 10:19:25;;;;;;;5.18;3.55;;;;;;;;;;4936452;29;20067;-76
2022/08/15 10:21:55;;;;;;;5.85;3.25;;;;;;;;;;4940963;29;20082;-77
2022/08/15 10:24:34;;;;;;;5.72;3.53;;;;;;;;;;4954927;29;20036;-77
2022/08/15 10:27:07;;;;;;;5.45;3.70;;;;;;;;;;4955256;29;20043;-78
2022/08/15 10:29:36;;;;;;;7.47;4.40;;;;;;;;;;4954562;28;20398;-75
2022/08/15 10:32:03;;;;;;;8.75;5.13;;;;;;;;;;4955441;29;20578;-77
2022/08/15 10:34:48;;;;;;;10.45;7.07;;;;;;;;;;4933883;29;20046;-76
2022/08/15 10:37:39;;;;;;;12.45;8.40;;;;;;;;;;4935810;29;20035;-75
2022/08/15 10:40:32;;;;;;;13.35;8.88;;;;;;;;;;4918660;29;20052;-76
2022/08/15 10:43:26;;;;;;;10.02;6.15;;;;;;;;;;4935847;29;20059;-76
2022/08/15 10:45:59;;;;;;;9.35;6.50;;;;;;;;;;4934355;29;20036;-76
2022/08/15 10:48:39;;;;;;;;;;;;;;;;;;4935385;29;20483;-77
2022/08/15 10:51:27;;;;;;;5.22;3.88;;;;;;;;;;4935253;29;20025;-77
2022/08/15 10:54:11;;;;;;;6.25;4.05;;;;;;;;;;4935771;29;20088;-76
2022/08/15 10:56:38;;;;;;;10.38;4.93;;;;;;;;;;4935840;29;20040;-76
2022/08/15 10:59:14;;;;;;;8.43;4.55;;;;;;;;;;4936152;29;20083;-77
2022/08/15 11:01:44;;;;;;;7.53;4.53;;;;;;;;;;4934921;29;20035;-76
2022/08/15 11:04:35;;;;;;;6.38;4.05;;;;;;;;;;4935476;29;20042;-76
2022/08/15 11:07:30;;;;;;;6.45;4.40;;;;;;;;;;4924445;29;20510;-76
2022/08/15 11:09:59;;;;;;;7.45;4.68;;;;;;;;;;4936040;29;20050;-76
2022/08/15 11:12:28;;;;;;;5.65;4.18;;;;;;;;;;4913245;29;20390;-75
2022/08/15 11:14:59;;;;;;;4.95;3.72;;;;;;;;;;4925413;29;20501;-75
2022/08/15 11:17:30;;;;;;;6.80;3.60;;;;;;;;;;4932940;29;20070;-75
2022/08/15 11:20:12;;;;;;;5.22;4.05;;;;;;;;;;4935174;29;20095;-75
2022/08/15 11:22:53;;;;;;;6.30;4.87;;;;;;;;;;4936453;29;20124;-77
2022/08/15 11:25:25;;;;;;;5.10;3.40;;;;;;;;;;4939909;29;20768;-76
2022/08/15 11:28:24;;;;;;;5.32;3.58;;;;;;;;;;4954730;29;20542;-76
2022/08/15 11:30:59;;;;;;;5.03;3.20;;;;;;;;;;4935919;29;20063;-76
2022/08/15 11:33:30;;;;;;;4.45;3.20;;;;;;;;;;4925800;29;20036;-76
2022/08/15 11:36:21;;;;;;;5.38;3.95;;;;;;;;;;4924290;29;20256;-75
2022/08/15 11:38:51;;;;;;;9.18;5.47;;;;;;;;;;4926554;29;20044;-76
2022/08/15 11:41:23;;;;;;;7.43;3.72;;;;;;;;;;4933257;29;20067;-76
2022/08/15 11:43:51;;;;;;;5.50;3.30;;;;;;;;;;4923143;29;20115;-76
2022/08/15 11:46:22;;;;;;;6.68;3.40;;;;;;;;;;4919861;29;20451;-76
2022/08/15 11:49:06;;;;;;;4.22;3.05;;;;;;;;;;4922256;29;20468;-76
2022/08/15 11:51:45;;;;;;;4.78;3.20;;;;;;;;;;4934947;29;20055;-76
2022/08/15 11:54:14;;;;;;;6.13;3.30;;;;;;;;;;4937697;29;20035;-76
2022/08/15 11:56:55;;;;;;;4.38;3.58;;;;;;;;;;4915335;29;20031;-76
2022/08/15 11:59:38;;;;;;;7.05;3.20;;;;;;;;;;4926500;29;20074;-76
2022/08/15 12:02:19;;;;;;;3.30;2.78;;;;;;;;;;4921414;29;20052;-75
2022/08/15 12:04:47;;;;;;;3.50;2.70;;;;;;;;;;4926584;29;20042;-76
2022/08/15 12:07:15;;;;;;;3.85;2.80;;;;;;;;;;4923805;29;20036;-75
2022/08/15 12:09:52;;;;;;;4.18;2.80;;;;;;;;;;4930856;29;20035;-76
2022/08/15 12:12:38;;;;;;;4.75;3.15;;;;;;;;;;4921984;29;20039;-75
2022/08/15 12:15:13;;;;;;;3.83;3.17;;;;;;;;;;4911899;29;20606;-76
2022/08/15 12:17:48;;;;;;;5.70;3.30;;;;;;;;;;4924827;29;20107;-76
2022/08/15 12:20:15;;;;;;;5.60;3.20;;;;;;;;;;4920034;29;20171;-76
2022/08/15 12:22:43;;;;;;;3.55;3.03;;;;;;;;;;4930379;29;20040;-77
2022/08/15 12:25:10;;;;;;;10.30;3.15;;;;;;;;;;4922680;29;20410;-76
2022/08/15 12:27:37;;;;;;;4.97;3.15;;;;;;;;;;4937712;29;20131;-76
2022/08/15 12:30:28;;;;;;;4.78;2.80;;;;;;;;;;4955311;29;20042;-76
2022/08/15 12:32:54;;;;;;;4.97;3.22;;;;;;;;;;4956247;29;20406;-77
2022/08/15 12:35:22;;;;;;;3.22;2.83;;;;;;;;;;4956636;29;20050;-77
2022/08/15 12:37:48;;;;;;;4.50;3.10;;;;;;;;;;4956363;29;20038;-76
2022/08/15 12:40:17;;;;;;;5.32;3.00;;;;;;;;;;4955708;29;20079;-75
2022/08/15 12:42:43;;;;;;;3.78;2.85;;;;;;;;;;4955841;29;20045;-75
2022/08/15 12:45:14;;;;;;;3.58;2.92;;;;;;;;;;4956078;29;20106;-76
2022/08/15 12:47:43;;;;;;;4.53;2.90;;;;;;;;;;4955698;29;20063;-76
2022/08/15 12:50:09;;;;;;;4.28;3.00;;;;;;;;;;4956445;29;20035;-76
2022/08/15 12:52:36;;;;;;;4.85;3.35;;;;;;;;;;4955624;28;20035;-75
2022/08/15 12:55:04;;;;;;;3.92;3.05;;;;;;;;;;4955173;29;20118;-76
2022/08/15 12:57:30;;;;;;;4.60;3.47;;;;;;;;;;4956227;29;20047;-75
2022/08/15 12:59:56;;;;;;;3.50;3.00;;;;;;;;;;4956165;29;20042;-76
2022/08/15 13:02:24;;;;;;;3.58;2.72;;;;;;;;;;4955609;29;20115;-75
2022/08/15 13:04:55;;;;;;;6.03;2.88;;;;;;;;;;4955602;29;20035;-76
2022/08/15 13:07:23;;;;;;;6.07;2.97;;;;;;;;;;4950280;29;20058;-77
2022/08/15 13:09:50;;;;;;;4.88;3.38;;;;;;;;;;4940329;29;20032;-76
2022/08/15 13:12:17;;;;;;;3.75;3.13;;;;;;;;;;4921158;29;20064;-78
2022/08/15 13:14:44;;;;;;;3.65;2.63;;;;;;;;;;4937341;29;20495;-76
2022/08/15 13:17:12;;;;;;;4.65;2.60;;;;;;;;;;4936236;29;20087;-76
2022/08/15 13:25:14;;;;;;;4.20;3.33;;;;;;;;;;4937586;29;20043;-77
2022/08/15 13:27:40;;;;;;;3.60;2.90;;;;;;;;;;4931323;29;20055;-76
2022/08/15 13:30:10;;;;;;;3.53;2.83;;;;;;;;;;4920351;29;20044;-76
2022/08/15 13:32:36;;;;;;;3.95;2.60;;;;;;;;;;4920600;29;20043;-76
2022/08/15 13:35:08;;;;;;;3.13;2.40;;;;;;;;;;4934027;29;20032;-77
2022/08/15 13:37:35;;;;;;;3.27;2.80;;;;;;;;;;4937347;29;20054;-78
2022/08/15 13:40:01;;;;;;;3.55;2.83;;;;;;;;;;4936824;29;20107;-78
2022/08/15 13:42:28;;;;;;;3.25;2.47;;;;;;;;;;4929869;29;20398;-77
2022/08/15 13:44:54;;;;;;;5.00;3.20;;;;;;;;;;4936505;29;20028;-76
2022/08/15 13:47:23;;;;;;;4.45;2.70;;;;;;;;;;4936652;29;20046;-77
2022/08/15 13:49:52;;;;;;;3.50;2.80;;;;;;;;;;4936687;29;20031;-78
2022/08/15 13:52:18;;;;;;;4.40;3.17;;;;;;;;;;4937123;29;20063;-76
2022/08/15 13:54:44;;;;;;;4.70;2.85;;;;;;;;;;4911179;29;20024;-77
2022/08/15 13:57:10;;;;;;;3.67;3.00;;;;;;;;;;4918139;29;20036;-77
2022/08/15 13:59:36;;;;;;;4.45;3.00;;;;;;;;;;4936623;29;20031;-75
2022/08/15 14:02:04;;;;;;;3.35;2.97;;;;;;;;;;4936283;29;20039;-77
2022/08/15 14:04:33;;;;;;;4.28;2.88;;;;;;;;;;4919079;29;20034;-76
2022/08/15 14:07:00;;;;;;;4.35;2.63;;;;;;;;;;4936709;29;20038;-76
2022/08/15 14:09:27;;;;;;;4.40;2.70;;;;;;;;;;4936710;29;20019;-76
2022/08/15 14:11:53;;;;;;;4.28;2.92;;;;;;;;;;4934442;29;20418;-76
2022/08/15 14:14:19;;;;;;;4.53;2.97;;;;;;;;;;4920291;29;20556;-75
2022/08/15 14:16:47;;;;;;;2.80;2.50;;;;;;;;;;4925406;29;20039;-74
2022/08/15 14:19:16;;;;;;;3.65;2.53;;;;;;;;;;4918052;29;20032;-76
2022/08/15 14:21:43;;;;;;;3.60;2.90;;;;;;;;;;4917303;29;20071;-74
2022/08/15 14:24:09;;;;;;;5.00;2.75;;;;;;;;;;4935734;29;20039;-74
2022/08/15 14:26:40;;;;;;;5.63;2.75;;;;;;;;;;4938257;29;20043;-76
2022/08/15 14:29:10;;;;;;;4.95;3.10;;;;;;;;;;4955187;29;20090;-76
2022/08/15 14:31:36;;;;;;;3.17;2.58;;;;;;;;;;4955085;29;20159;-75
2022/08/15 14:34:07;;;;;;;3.88;3.03;;;;;;;;;;4954503;29;20475;-74
2022/08/15 14:36:34;;;;;;;3.42;2.67;;;;;;;;;;4938134;29;20050;-75
2022/08/15 14:39:04;;;;;;;3.35;2.83;;;;;;;;;;4900007;29;20172;-74
2022/08/15 14:41:33;;;;;;;2.88;2.33;;;;;;;;;;4918408;29;20027;-78
2022/08/15 14:43:59;;;;;;;3.97;2.83;;;;;;;;;;4933679;29;20050;-74
2022/08/15 14:46:27;;;;;;;3.00;2.50;;;;;;;;;;4934799;29;20428;-75
2022/08/15 14:48:54;;;;;;;4.13;2.92;;;;;;;;;;4934462;29;20118;-75
2022/08/15 14:51:31;;;;;;;3.00;2.65;;;;;;;;;;4935441;29;20062;-78
2022/08/15 14:54:00;;;;;;;4.38;2.60;;;;;;;;;;4932908;29;20020;-76
2022/08/15 14:56:28;;;;;;;3.10;2.33;;;;;;;;;;4935635;29;20541;-78
2022/08/15 14:58:54;;;;;;;3.20;2.83;;;;;;;;;;4935399;29;20426;-78
2022/08/15 15:01:22;;;;;;;4.57;2.70;;;;;;;;;;4929303;29;20118;-77
2022/08/15 15:03:51;;;;;;;3.92;2.85;;;;;;;;;;4917548;29;20051;-75
2022/08/15 15:06:20;;;;;;;3.05;2.50;;;;;;;;;;4927926;29;20023;-77
2022/08/15 15:08:48;;;;;;;3.67;2.80;;;;;;;;;;4942878;29;20031;-75
2022/08/15 15:11:15;;;;;;;3.28;2.78;;;;;;;;;;4954919;29;20028;-76
2022/08/15 15:13:43;;;;;;;4.97;3.03;;;;;;;;;;4934579;29;20038;-76
2022/08/15 15:16:12;;;;;;;4.20;2.90;;;;;;;;;;4925527;29;20467;-76
2022/08/15 15:18:38;;;;;;;3.70;2.92;;;;;;;;;;4927139;29;20040;-76
2022/08/15 15:21:04;;;;;;;4.00;2.90;;;;;;;;;;4935211;29;20038;-75
2022/08/15 15:23:31;;;;;;;3.20;2.70;;;;;;;;;;4935155;29;20039;-76
2022/08/15 15:25:57;;;;;;;3.25;2.63;;;;;;;;;;4934119;29;20039;-76
2022/08/15 15:28:25;;;;;;;4.55;2.35;;;;;;;;;;4935149;29;20035;-77
2022/08/15 15:30:53;;;;;;;4.45;2.70;;;;;;;;;;4934875;29;20035;-76